createdAt,value
2019-03-20T00:02:29.925Z,67.55
2019-03-20T00:05:02.430Z,92.65
2019-03-20T00:07:35.141Z,97.67
2019-03-20T00:10:10.621Z,95.03
2019-03-20T00:12:43.021Z,85.12
2019-03-20T00:15:15.828Z,93.62
2019-03-20T00:17:48.478Z,75.35
2019-03-20T00:24:53.277Z,215.40
2019-03-20T00:28:22.372Z,251.07
2019-03-20T00:30:59.251Z,122.40
2019-03-20T00:33:32.238Z,113.40
2019-03-20T00:36:06.618Z,106.47
2019-03-20T00:38:39.776Z,106.10
2019-03-20T00:41:27.128Z,176.78
2019-03-20T00:44:00.162Z,107.50
2019-03-20T00:46:39.307Z,133.15
2019-03-20T00:49:19.818Z,115.37
2019-03-20T00:52:04.398Z,135.60
2019-03-20T00:54:42.457Z,96.85
2019-03-20T00:57:28.887Z,105.67
2019-03-20T01:00:01.992Z,146.70
2019-03-20T01:05:41.398Z,172.47
2019-03-20T01:08:18.837Z,133.82
2019-03-20T01:11:12.621Z,160.12
2019-03-20T01:14:20.606Z,204.47
2019-03-20T01:17:18.867Z,222.93
2019-03-20T01:19:52.938Z,125.30
2019-03-20T01:22:31.890Z,127.53
2019-03-20T01:25:34.996Z,139.65
2019-03-20T01:28:21.908Z,151.87
2019-03-20T01:30:54.986Z,116.53
2019-03-20T01:33:29.428Z,90.77
2019-03-20T01:36:02.242Z,123.85
2019-03-20T01:38:38.356Z,129.05
2019-03-20T01:41:11.309Z,118.30
2019-03-20T01:43:45.997Z,145.10
2019-03-20T01:46:35.588Z,166.15
2019-03-20T01:49:20.777Z,89.55
2019-03-20T01:55:38.696Z,198.62
2019-03-20T01:59:54.497Z,219.32
2019-03-20T02:06:51.369Z,161.20
2019-03-20T02:11:48.850Z,156.05
2019-03-20T02:13:25.452Z,454.40
2019-03-20T02:16:21.070Z,181.63
2019-03-20T02:18:54.087Z,127.78
2019-03-20T02:21:37.696Z,56.53
2019-03-20T02:24:46.481Z,126.33
2019-03-20T02:27:48.266Z,228.98
2019-03-20T02:30:26.874Z,156.90
2019-03-20T02:33:03.226Z,145.57
2019-03-20T02:35:51.542Z,150.50
2019-03-20T02:38:45.188Z,170.45
2019-03-20T02:41:41.412Z,217.45
2019-03-20T02:44:16.490Z,133.75
2019-03-20T02:47:08.634Z,283.80
2019-03-20T02:50:21.417Z,273.70
2019-03-20T02:53:08.633Z,186.65
2019-03-20T03:16:31.877Z,342.95
2019-03-20T03:20:26.168Z,178.35
2019-03-20T03:23:29.511Z,101.65
2019-03-20T03:26:04.287Z,129.12
2019-03-20T03:28:41.358Z,112.83
2019-03-20T03:31:14.211Z,117.33
2019-03-20T03:34:36.578Z,178.18
2019-03-20T03:37:59.561Z,163.95
2019-03-20T03:40:43.558Z,123.10
2019-03-20T03:43:19.329Z,155.48
2019-03-20T03:45:56.079Z,99.15
2019-03-20T03:48:36.318Z,160.40
2019-03-20T03:51:10.532Z,149.15
2019-03-20T03:53:49.339Z,115.10
2019-03-20T03:56:23.909Z,69.15
2019-03-20T03:58:56.759Z,55.17
2019-03-20T04:01:30.772Z,121.42
2019-03-20T04:04:05.071Z,126.02
2019-03-20T04:06:40.758Z,127.25
2019-03-20T04:10:10.678Z,286.62
2019-03-20T04:14:01.109Z,79.20
2019-03-20T04:21:23.709Z,76.97
2019-03-20T04:23:56.890Z,211.43
2019-03-20T04:26:59.238Z,63.02
2019-03-20T04:29:37.844Z,84.65
2019-03-20T04:33:12.357Z,147.02
2019-03-20T04:35:46.529Z,273.35
2019-03-20T04:38:19.329Z,83.25
2019-03-20T04:40:53.868Z,91.80
2019-03-20T04:44:12.610Z,186.88
2019-03-20T04:47:19.676Z,178.68
2019-03-20T04:50:26.376Z,174.30
2019-03-20T04:53:13.418Z,141.35
2019-03-20T04:55:46.282Z,78.10
2019-03-20T04:58:19.620Z,91.78
2019-03-20T05:00:52.177Z,82.60
2019-03-20T05:03:25.414Z,81.35
2019-03-20T05:05:58.009Z,83.50
2019-03-20T05:08:30.578Z,90.65
2019-03-20T05:11:03.168Z,75.83
2019-03-20T05:13:36.341Z,58.55
2019-03-20T05:16:09.049Z,68.70
2019-03-20T05:18:43.248Z,44.80
2019-03-20T05:21:20.708Z,46.08
2019-03-20T05:23:55.557Z,67.53
2019-03-20T05:26:29.700Z,72.47
2019-03-20T05:29:02.508Z,99.62
2019-03-20T05:31:35.228Z,67.30
2019-03-20T05:34:08.030Z,68.33
2019-03-20T05:36:41.299Z,66.50
2019-03-20T05:39:15.767Z,53.15
2019-03-20T05:41:48.219Z,67.32
2019-03-20T05:44:20.998Z,61.33
2019-03-20T05:46:54.048Z,40.73
2019-03-20T05:49:28.646Z,68.85
2019-03-20T05:52:01.368Z,75.25
2019-03-20T05:54:33.919Z,73.22
2019-03-20T05:57:06.540Z,61.40
2019-03-20T05:59:51.651Z,47.38
2019-03-20T06:05:13.027Z,308.55
2019-03-20T06:08:03.528Z,239.25
2019-03-20T06:09:40.133Z,150.70
2019-03-20T06:13:00.886Z,951.28
2019-03-20T06:27:34.598Z,452.45
2019-03-20T06:30:14.689Z,397.25
2019-03-20T06:47:20.377Z,576.37
2019-03-20T06:50:16.115Z,881.50
2019-03-20T06:52:54.398Z,239.10
2019-03-20T06:55:45.252Z,62.48
2019-03-20T06:58:31.120Z,64.47
2019-03-20T14:09:58.937Z,46.25
2019-03-20T14:12:47.179Z,51.02
2019-03-20T14:15:40.108Z,38.65
2019-03-20T14:34:28.400Z,48.92
2019-03-20T14:45:28.298Z,38.98
2019-03-20T14:51:53.328Z,82.42
2019-03-20T14:57:27.183Z,39.20
2019-03-20T15:03:44.328Z,50.85
2019-03-20T15:12:15.589Z,32.05
2019-03-20T15:20:16.876Z,63.92
2019-03-20T15:31:45.036Z,34.10
2019-03-20T15:55:33.657Z,51.25
2019-03-20T16:02:02.408Z,46.95
2019-03-20T16:05:09.817Z,49.63
2019-03-20T16:08:05.989Z,47.98
2019-03-20T16:10:51.621Z,36.55
2019-03-20T16:13:38.404Z,26.93
2019-03-20T16:24:15.098Z,37.50
2019-03-20T16:27:08.701Z,34.95
2019-03-20T16:29:43.889Z,31.25
2019-03-20T16:32:24.740Z,27.00
2019-03-20T16:35:01.949Z,30.60
2019-03-20T16:37:35.978Z,36.25
2019-03-20T16:40:28.005Z,33.55
2019-03-20T16:43:19.915Z,36.03
2019-03-20T16:46:23.806Z,34.53
2019-03-20T16:49:05.321Z,49.93
2019-03-20T16:51:37.918Z,45.92
2019-03-20T16:54:10.629Z,55.08
2019-03-20T16:57:14.728Z,44.88
2019-03-20T16:59:58.188Z,49.65
2019-03-20T17:06:43.628Z,104.25
2019-03-20T17:13:26.376Z,62.70
2019-03-20T17:16:01.498Z,48.83
2019-03-20T17:18:35.867Z,46.13
2019-03-20T17:21:10.028Z,53.78
2019-03-20T17:23:42.477Z,43.02
2019-03-20T17:26:15.077Z,39.38
2019-03-20T17:28:47.488Z,39.08
2019-03-20T17:33:51.238Z,51.68
2019-03-20T17:36:24.200Z,47.13
2019-03-20T17:38:58.479Z,47.13
2019-03-20T17:41:36.794Z,50.65
2019-03-20T17:44:07.959Z,65.20
2019-03-20T17:46:42.008Z,63.80
2019-03-20T17:49:14.578Z,76.92
2019-03-20T17:51:47.218Z,63.98
2019-03-20T17:54:19.585Z,54.77
2019-03-20T17:56:52.087Z,44.48
2019-03-20T17:59:24.538Z,53.15
2019-03-20T18:01:57.018Z,58.60
2019-03-20T18:04:30.056Z,57.35
2019-03-20T18:07:03.779Z,60.10
2019-03-20T18:09:36.098Z,55.45
2019-03-20T18:12:08.547Z,66.70
2019-03-20T18:14:41.099Z,71.00
2019-03-20T18:17:14.108Z,64.17
2019-03-20T18:19:55.040Z,66.97
2019-03-20T18:23:34.190Z,49.90
2019-03-20T18:26:45.390Z,78.72
2019-03-20T18:29:20.656Z,58.08
2019-03-20T18:31:53.868Z,60.25
2019-03-20T18:34:45.476Z,64.00
2019-03-20T18:38:00.220Z,51.90
2019-03-20T18:40:35.439Z,82.62
2019-03-20T18:43:10.776Z,101.22
2019-03-20T18:45:52.313Z,99.40
2019-03-20T18:48:27.158Z,72.03
2019-03-20T18:51:04.870Z,80.03
2019-03-20T18:53:41.608Z,97.90
2019-03-20T18:56:14.135Z,92.08
2019-03-20T18:58:46.658Z,86.72
2019-03-20T19:01:19.398Z,88.03
2019-03-20T19:03:51.818Z,87.00
2019-03-20T19:06:26.919Z,92.72
2019-03-20T19:09:00.350Z,81.37
2019-03-20T19:11:34.330Z,80.15
2019-03-20T19:14:07.238Z,83.17
2019-03-20T19:16:44.558Z,91.67
2019-03-20T19:19:17.278Z,88.92
2019-03-20T19:21:49.714Z,84.92
2019-03-20T19:24:22.302Z,113.50
2019-03-20T19:26:55.112Z,96.35
2019-03-20T19:29:27.788Z,108.35
2019-03-20T19:32:00.379Z,112.77
2019-03-20T19:34:33.378Z,98.17
2019-03-20T19:37:15.789Z,100.07
2019-03-20T19:39:49.698Z,82.72
2019-03-20T19:42:22.211Z,94.15
2019-03-20T19:44:56.508Z,75.25
2019-03-20T19:47:31.291Z,112.85
2019-03-20T19:50:12.008Z,105.12
2019-03-20T19:52:54.078Z,95.77
2019-03-20T19:56:17.617Z,90.50
2019-03-20T19:58:56.229Z,87.05
2019-03-20T20:01:28.687Z,112.10
2019-03-20T20:04:01.188Z,86.70
2019-03-20T20:06:33.649Z,89.70
2019-03-20T20:09:09.419Z,86.87
2019-03-20T20:11:43.069Z,87.55
2019-03-20T20:14:15.898Z,82.88
2019-03-20T20:16:48.508Z,87.62
2019-03-20T20:19:21.172Z,75.97
2019-03-20T20:21:54.808Z,74.92
2019-03-20T20:24:27.178Z,79.03
2019-03-20T20:27:00.258Z,72.82
2019-03-20T20:29:33.012Z,78.15
2019-03-20T20:32:06.461Z,91.80
2019-03-20T20:34:38.888Z,78.92
2019-03-20T20:37:11.609Z,74.20
2019-03-20T20:39:44.316Z,59.90
2019-03-20T20:42:16.798Z,64.07
2019-03-20T20:44:49.417Z,57.90
2019-03-20T20:47:21.968Z,52.27
2019-03-20T20:49:54.718Z,49.03
2019-03-20T20:52:27.489Z,80.03
2019-03-20T20:55:00.326Z,63.75
2019-03-20T20:57:32.942Z,60.00
2019-03-20T21:00:07.174Z,59.73
2019-03-20T21:02:39.858Z,62.78
2019-03-20T21:05:12.603Z,70.50
2019-03-20T21:07:44.969Z,60.55
2019-03-20T21:10:17.728Z,54.70
2019-03-20T21:12:56.374Z,56.58
2019-03-20T21:15:38.677Z,48.35
2019-03-20T21:18:57.947Z,51.68
2019-03-20T21:21:44.569Z,46.30
2019-03-20T21:24:27.898Z,51.13
2019-03-20T21:27:44.388Z,47.00
2019-03-20T21:30:34.749Z,56.37
2019-03-20T21:33:08.978Z,54.27
2019-03-20T21:36:20.938Z,48.60
2019-03-20T21:38:54.211Z,54.93
2019-03-20T21:42:29.518Z,51.68
2019-03-20T21:45:46.598Z,53.80
2019-03-20T21:48:19.577Z,43.75
2019-03-20T21:51:37.378Z,44.98
2019-03-20T21:55:15.888Z,45.38
2019-03-20T21:57:56.096Z,48.40
2019-03-20T22:01:37.656Z,42.93
2019-03-20T22:04:14.031Z,45.78
2019-03-20T22:07:14.599Z,40.48
2019-03-20T22:10:44.086Z,42.15
2019-03-20T22:17:31.568Z,61.63
2019-03-20T22:20:43.971Z,53.45
2019-03-20T22:23:59.619Z,55.92
2019-03-20T22:27:11.636Z,43.45
2019-03-20T22:29:51.557Z,65.57
2019-03-20T22:41:06.258Z,41.92
2019-03-20T22:44:17.040Z,58.40
2019-03-20T22:47:40.698Z,42.30
2019-03-20T22:50:40.851Z,38.45
2019-03-20T22:53:56.050Z,41.83
2019-03-20T22:57:26.728Z,34.50
2019-03-20T22:59:59.798Z,36.28
2019-03-20T23:02:47.878Z,39.65
2019-03-20T23:05:21.397Z,33.00
2019-03-20T23:07:55.948Z,29.90
2019-03-20T23:10:28.979Z,34.58
2019-03-20T23:13:01.950Z,26.70
2019-03-20T23:15:34.759Z,36.75
2019-03-20T23:18:07.788Z,43.45
2019-03-20T23:20:40.795Z,42.08
2019-03-20T23:23:13.990Z,37.05
2019-03-20T23:25:46.997Z,39.75
2019-03-20T23:28:20.238Z,36.55
2019-03-20T23:30:53.307Z,34.38
2019-03-20T23:33:26.179Z,35.45
2019-03-20T23:35:59.318Z,34.53
2019-03-20T23:38:32.498Z,29.75
2019-03-20T23:41:24.596Z,34.45
2019-03-20T23:43:57.894Z,33.50
2019-03-20T23:46:30.848Z,31.00
2019-03-20T23:49:07.568Z,30.32
2019-03-20T23:51:41.307Z,33.70
2019-03-20T23:54:16.133Z,38.88
2019-03-20T23:56:49.269Z,30.17
2019-03-20T23:59:22.259Z,30.82
